Time;durP1;ratioP1;P1;durP2;ratioP2;P2;SDS_P1;SDS_P2;PMS_P1;PMS_P2;Temp;Humidity;BMP_temperature;BMP_pressure;BME280_temperature;BME280_humidity;BME280_pressure;Samples;Min_cycle;Max_cycle;Signal;HPM_P1;HPM_P2
2022/12/01 00:10:24;;;;;;;6.43;5.25;;;;;;;15.97;92.08;102475.25;21015336;28;20059;-84
2022/12/01 00:19:02;;;;;;;6.78;4.72;;;;;;;15.96;91.86;102471.69;21009105;28;20181;-84
2022/12/01 00:29:03;;;;;;;7.70;5.25;;;;;;;15.96;92.15;102477.06;21016080;28;20131;-84
2022/12/01 00:39:05;;;;;;;6.85;4.90;;;;;;;15.94;92.08;102469.09;21009976;28;20526;-84
2022/12/01 00:49:11;;;;;;;6.43;4.50;;;;;;;15.95;91.95;102476.19;21025691;28;20055;-84
2022/12/01 00:59:12;;;;;;;6.32;4.55;;;;;;;15.95;91.78;102473.50;20986864;28;20509;-84
2022/12/01 01:09:14;;;;;;;7.40;5.05;;;;;;;15.96;91.86;102479.75;21027084;28;20054;-84
2022/12/01 01:19:16;;;;;;;6.45;4.82;;;;;;;15.95;91.68;102475.34;20991248;28;20055;-84
2022/12/01 01:29:17;;;;;;;6.40;4.55;;;;;;;15.94;91.61;102474.47;21028143;28;20508;-84
2022/12/01 01:39:19;;;;;;;7.32;5.32;;;;;;;15.95;91.53;102480.72;21011420;28;20044;-84
2022/12/01 01:49:20;;;;;;;7.13;5.28;;;;;;;15.94;91.53;102495.09;21027948;28;20052;-84
2022/12/01 01:59:28;;;;;;;6.25;4.75;;;;;;;15.95;91.31;102494.16;21011653;28;20047;-84
2022/12/01 02:09:30;;;;;;;7.22;5.20;;;;;;;15.94;91.35;102490.56;21018238;28;20175;-84
2022/12/01 02:19:42;;;;;;;7.20;5.00;;;;;;;15.87;91.24;102478.41;21018508;28;20044;-84
2022/12/01 02:29:58;;;;;;;6.25;4.90;;;;;;;15.94;91.15;102484.34;21018749;28;20599;-84
2022/12/01 02:40:09;;;;;;;6.82;5.00;;;;;;;15.94;91.24;102489.72;21021256;28;20054;-84
2022/12/01 02:50:12;;;;;;;7.00;5.07;;;;;;;15.93;91.12;102478.09;21029280;28;20101;-84
2022/12/01 03:00:15;;;;;;;7.53;5.30;;;;;;;15.49;91.00;102433.91;20995944;28;20471;-84
2022/12/01 03:10:43;;;;;;;7.68;5.32;;;;;;;15.94;91.06;102500.47;20982413;28;20047;-84
2022/12/01 03:21:06;;;;;;;6.57;4.95;;;;;;;15.93;91.01;102491.53;21004508;28;20052;-84
2022/12/01 03:31:10;;;;;;;7.45;5.82;;;;;;;15.92;90.83;102489.78;21004592;28;20048;-84
2022/12/01 03:41:16;;;;;;;7.03;5.23;;;;;;;15.92;91.12;102481.72;20983866;28;20054;-84
2022/12/01 03:51:17;;;;;;;;;;;;;;;15.93;90.62;102482.63;20987510;28;20504;-84
2022/12/01 04:01:21;;;;;;;6.40;5.03;;;;;;;15.92;90.53;102470.13;21001092;28;19974;-84
2022/12/01 04:21:42;;;;;;;7.32;5.32;;;;;;;15.90;90.52;102478.28;21003556;28;20110;-84
2022/12/01 04:31:44;;;;;;;7.28;5.30;;;;;;;15.92;90.52;102488.94;21008019;28;20049;-84
2022/12/01 04:41:45;;;;;;;8.05;5.47;;;;;;;15.91;90.59;102480.00;20986028;28;20052;-84
2022/12/01 04:51:47;;;;;;;7.60;5.60;;;;;;;15.91;90.39;102489.91;21009450;28;20049;-84
2022/12/01 05:01:49;;;;;;;6.97;4.93;;;;;;;15.91;90.40;102484.53;20999415;28;20063;-84
2022/12/01 05:11:50;;;;;;;7.45;5.30;;;;;;;15.90;90.24;102480.06;21011692;28;20408;-84
2022/12/01 05:21:52;;;;;;;6.55;5.28;;;;;;;15.91;90.28;102495.28;21004208;28;20052;-84
2022/12/01 05:31:53;;;;;;;6.97;5.22;;;;;;;15.89;90.12;102503.38;20999660;28;20405;-83
2022/12/01 05:41:55;;;;;;;7.20;5.35;;;;;;;15.89;90.35;102503.38;21000635;28;20048;-84
2022/12/01 05:51:56;;;;;;;7.72;5.40;;;;;;;15.89;90.21;102503.38;20997743;28;20056;-84
2022/12/01 06:01:58;;;;;;;6.47;4.82;;;;;;;15.88;90.09;102500.78;21003392;28;20121;-84
2022/12/01 06:11:59;;;;;;;7.25;5.85;;;;;;;15.89;90.21;102497.13;21015921;28;20032;-84
2022/12/01 06:22:01;;;;;;;6.38;5.00;;;;;;;15.88;89.98;102503.47;21014048;28;20052;-84
2022/12/01 06:32:03;;;;;;;7.30;4.97;;;;;;;15.77;90.02;102490.63;21016201;28;20056;-84
2022/12/01 06:42:05;;;;;;;7.35;5.95;;;;;;;15.88;90.09;102511.53;20995372;28;20106;-84
2022/12/01 06:52:06;;;;;;;7.68;5.35;;;;;;;15.87;89.87;102515.13;21017446;28;20044;-84
2022/12/01 07:02:10;;;;;;;7.45;5.90;;;;;;;15.69;89.64;102490.13;20984725;28;20063;-84
2022/12/01 07:12:11;;;;;;;6.97;5.60;;;;;;;15.87;89.81;102533.91;21037753;28;20475;-84
2022/12/01 07:22:13;;;;;;;7.63;5.57;;;;;;;15.88;89.78;102546.44;21015608;28;20047;-84
2022/12/01 07:32:15;;;;;;;8.77;6.10;;;;;;;15.59;89.47;102506.75;21011821;28;20126;-83
2022/12/01 07:42:16;;;;;;;8.60;6.25;;;;;;;15.89;89.50;102550.84;20996445;28;20056;-87
2022/12/01 07:52:18;;;;;;;8.10;6.22;;;;;;;15.89;89.50;102553.53;20988490;28;20132;-87
2022/12/01 08:02:19;;;;;;;8.30;5.72;;;;;;;15.89;89.55;102556.22;20985147;28;20158;-91
2022/12/01 08:12:21;;;;;;;11.10;7.15;;;;;;;15.60;89.88;102527.25;20946391;28;20518;-88
2022/12/01 08:22:22;;;;;;;10.70;7.13;;;;;;;15.78;92.23;102538.00;20981974;28;20139;-93
2022/12/01 08:32:24;;;;;;;10.45;7.97;;;;;;;15.94;92.06;102571.16;20987608;28;20126;-84
2022/12/01 08:42:26;;;;;;;15.75;9.32;;;;;;;16.05;92.20;102583.13;21000762;28;20048;-96
2022/12/01 08:52:31;;;;;;;16.08;10.15;;;;;;;16.16;89.95;102572.69;21013432;28;20438;-96
2022/12/01 09:02:32;;;;;;;15.68;10.00;;;;;;;16.33;88.51;102587.88;21045204;28;20048;-95
2022/12/01 09:12:34;;;;;;;17.38;11.30;;;;;;;16.45;87.18;102585.47;21020620;28;20075;-95
2022/12/01 09:22:36;;;;;;;17.15;10.10;;;;;;;16.56;86.65;102590.22;21052049;28;20052;-94
2022/12/01 09:32:37;;;;;;;13.10;9.30;;;;;;;16.62;86.26;102588.06;21083401;28;20062;-95
2022/12/01 09:42:39;;;;;;;15.80;10.20;;;;;;;16.57;85.45;102571.34;21053808;28;20051;-95
2022/12/01 09:52:52;;;;;;;13.90;9.30;;;;;;;16.64;85.25;102563.78;21011716;23;20049;-94
2022/12/01 10:03:48;;;;;;;15.30;9.85;;;;;;;16.75;84.77;102579.28;20848557;28;20439;-87
2022/12/01 10:13:50;;;;;;;12.77;9.30;;;;;;;16.73;86.00;102565.94;20743462;28;20049;-88
2022/12/01 10:24:10;;;;;;;15.82;9.20;;;;;;;16.67;86.93;102567.16;20782650;28;20049;-85
2022/12/01 10:34:18;;;;;;;12.00;9.20;;;;;;;16.60;87.50;102557.72;20739945;28;20384;-87
2022/12/01 10:44:20;;;;;;;12.70;9.07;;;;;;;16.57;88.02;102560.56;20699349;28;20422;-87
2022/12/01 10:54:36;;;;;;;12.40;8.15;;;;;;;16.54;88.42;102555.38;20642938;28;20053;-86
2022/12/01 11:04:50;;;;;;;11.88;8.50;;;;;;;16.46;88.61;102546.88;20636586;28;20050;-87
2022/12/01 11:14:53;;;;;;;12.43;9.38;;;;;;;16.50;88.76;102548.44;20634279;28;20054;-87
2022/12/01 11:25:03;;;;;;;12.75;8.55;;;;;;;16.48;88.99;102536.91;20634930;28;20046;-87
2022/12/01 11:35:13;;;;;;;11.02;8.57;;;;;;;16.49;88.86;102535.94;20599136;28;20580;-87
2022/12/01 11:45:20;;;;;;;11.68;8.40;;;;;;;16.48;88.88;102526.16;20614821;28;20050;-87
2022/12/01 11:55:25;;;;;;;12.32;8.35;;;;;;;16.47;88.77;102525.28;20630142;28;20057;-87
2022/12/01 12:05:49;;;;;;;11.55;7.82;;;;;;;16.48;88.75;102515.41;20616871;28;20104;-86
2022/12/01 12:15:53;;;;;;;11.80;8.45;;;;;;;16.47;88.64;102514.53;20610171;28;20054;-87
2022/12/01 12:26:10;;;;;;;11.43;8.53;;;;;;;16.47;88.44;102502.91;20607926;28;20144;-87
2022/12/01 12:36:22;;;;;;;9.95;7.72;;;;;;;16.49;87.51;102498.31;20607089;28;20431;-87
2022/12/01 12:47:01;;;;;;;11.48;7.72;;;;;;;16.48;87.88;102499.28;20611367;28;20050;-84
2022/12/01 12:57:06;;;;;;;10.38;8.02;;;;;;;16.42;88.30;102494.25;20700685;28;20076;-84
2022/12/01 13:07:15;;;;;;;11.73;7.83;;;;;;;15.97;89.21;102429.56;20707826;28;20461;-83
2022/12/01 13:18:04;;;;;;;11.13;8.18;;;;;;;16.31;90.13;102487.63;20725786;28;20046;-84
2022/12/01 13:28:14;;;;;;;9.20;7.68;;;;;;;16.07;90.72;102452.28;20706902;28;20053;-83
2022/12/01 13:38:31;;;;;;;10.98;7.72;;;;;;;16.24;91.39;102486.25;20722675;28;20046;-83
2022/12/01 13:48:36;;;;;;;9.20;7.53;;;;;;;16.21;91.72;102487.31;20706418;28;20070;-84
2022/12/01 13:58:49;;;;;;;10.47;6.97;;;;;;;15.73;92.13;102405.81;20722283;28;20072;-83
2022/12/01 14:08:57;;;;;;;8.70;7.05;;;;;;;16.18;92.83;102489.28;20702934;28;20049;-84
2022/12/01 14:18:59;;;;;;;9.82;7.63;;;;;;;16.17;93.14;102484.88;20687405;28;20046;-83
2022/12/01 14:29:01;;;;;;;8.38;6.72;;;;;;;16.16;93.32;102494.78;20701433;28;20041;-83
2022/12/01 14:39:11;;;;;;;10.18;7.35;;;;;;;16.14;93.58;102499.38;20718228;28;20116;-83
2022/12/01 14:49:17;;;;;;;8.35;6.57;;;;;;;16.06;93.79;102485.47;20709334;28;20108;-84
2022/12/01 14:59:21;;;;;;;9.68;6.97;;;;;;;16.13;94.20;102488.69;20612694;28;20498;-90
2022/12/01 15:09:23;;;;;;;9.55;7.32;;;;;;;16.12;94.58;102484.28;20659504;28;20590;-90
2022/12/01 15:19:39;;;;;;;8.80;6.90;;;;;;;16.09;94.53;102475.44;20703248;28;20046;-90
2022/12/01 15:29:45;;;;;;;8.57;6.38;;;;;;;15.57;94.73;102390.53;20622489;28;20129;-86
2022/12/01 15:39:55;;;;;;;8.05;6.55;;;;;;;16.08;95.00;102481.75;20624306;28;20112;-86
2022/12/01 15:50:30;;;;;;;9.95;6.35;;;;;;;16.08;95.15;102480.88;20608381;28;20139;-86
2022/12/01 16:00:32;;;;;;;8.27;6.45;;;;;;;15.69;95.00;102423.88;20689210;28;20062;-91
2022/12/01 16:10:35;;;;;;;7.70;6.18;;;;;;;16.07;95.21;102501.50;20684738;28;20780;-89
2022/12/01 16:20:40;;;;;;;8.88;6.32;;;;;;;16.07;95.61;102495.25;20662051;28;20973;-86
2022/12/01 16:30:42;;;;;;;8.13;6.45;;;;;;;15.96;95.59;102498.56;20680756;28;20600;-86
2022/12/01 16:40:46;;;;;;;8.20;6.57;;;;;;;16.05;95.69;102506.09;20733318;28;20049;-86
2022/12/01 16:50:48;;;;;;;8.82;6.65;;;;;;;15.78;95.96;102455.59;20703108;28;20061;-86
2022/12/01 17:00:51;;;;;;;7.63;6.05;;;;;;;16.04;96.11;102501.69;20691609;28;20129;-86
2022/12/01 17:10:54;;;;;;;8.73;6.50;;;;;;;16.04;96.15;102499.00;20715385;28;20054;-88
2022/12/01 17:21:00;;;;;;;8.60;6.65;;;;;;;15.97;96.26;102494.03;20728218;28;20058;-88
2022/12/01 17:31:03;;;;;;;7.93;6.40;;;;;;;16.03;96.22;102504.44;20696083;28;20061;-88
2022/12/01 17:41:08;;;;;;;8.93;6.93;;;;;;;16.03;96.29;102518.75;20694213;28;20116;-89
2022/12/01 17:51:11;;;;;;;10.68;6.95;;;;;;;16.02;96.74;102517.03;20679616;28;20512;-88
2022/12/01 18:01:17;;;;;;;8.48;6.57;;;;;;;16.02;96.96;102513.44;20747753;28;20462;-87
2022/12/01 18:11:20;;;;;;;8.23;6.45;;;;;;;15.99;97.07;102514.50;20741537;28;20124;-88
2022/12/01 18:21:23;;;;;;;8.02;6.40;;;;;;;16.00;97.25;102524.31;20750377;28;20584;-87
2022/12/01 18:31:25;;;;;;;9.35;6.90;;;;;;;16.00;97.28;102532.38;20700482;28;20392;-94
2022/12/01 18:41:27;;;;;;;10.02;7.50;;;;;;;16.00;97.08;102527.00;20827911;23;20048;-91
2022/12/01 18:51:32;;;;;;;10.25;7.57;;;;;;;16.01;97.27;102533.22;20781725;28;20103;-89
2022/12/01 19:01:36;;;;;;;9.82;7.28;;;;;;;16.00;97.19;102537.72;20753235;28;20049;-95
2022/12/01 19:11:39;;;;;;;10.10;7.93;;;;;;;15.99;97.52;102525.25;20784040;28;20056;-95
2022/12/01 19:21:41;;;;;;;10.73;7.97;;;;;;;15.99;97.71;102519.88;20781317;28;20133;-95
2022/12/01 19:31:43;;;;;;;8.63;7.10;;;;;;;15.99;97.89;102522.56;20797285;28;20114;-91
2022/12/01 19:41:44;;;;;;;10.20;7.38;;;;;;;15.78;97.74;102484.28;20820094;28;20659;-95
2022/12/01 19:51:46;;;;;;;10.88;7.95;;;;;;;15.97;97.77;102508.34;20875893;28;20147;-87
2022/12/01 20:01:47;;;;;;;9.93;6.80;;;;;;;15.39;97.66;102427.28;20868449;28;20110;-87
2022/12/01 20:11:49;;;;;;;9.32;7.63;;;;;;;15.96;97.78;102525.41;20872349;28;20769;-87
2022/12/01 20:21:50;;;;;;;10.00;7.38;;;;;;;15.96;97.75;102528.13;20848864;28;20048;-87
2022/12/01 20:31:54;;;;;;;9.20;7.15;;;;;;;15.95;97.82;102519.16;20848399;28;20048;-86
2022/12/01 20:41:56;;;;;;;9.40;6.95;;;;;;;15.80;97.71;102499.34;20859376;28;20049;-87
2022/12/01 20:51:57;;;;;;;9.15;6.88;;;;;;;15.46;97.83;102442.09;20863200;28;20053;-88
2022/12/01 21:01:59;;;;;;;9.98;7.65;;;;;;;15.94;97.87;102511.22;20871858;28;20057;-85
2022/12/01 21:22:21;;;;;;;10.80;7.13;;;;;;;15.89;97.69;102483.72;20866247;28;20497;-88
2022/12/01 21:32:30;;;;;;;8.65;6.63;;;;;;;15.93;97.85;102491.53;20879795;28;20528;-87
2022/12/01 21:42:31;;;;;;;8.43;6.80;;;;;;;15.87;97.69;102483.78;20853908;28;20072;-87
2022/12/01 21:52:39;;;;;;;8.98;6.60;;;;;;;15.71;97.54;102461.41;20873691;28;20460;-88
2022/12/01 22:02:48;;;;;;;8.32;6.53;;;;;;;15.93;97.48;102493.38;20865304;28;20059;-87
2022/12/01 22:12:50;;;;;;;7.95;6.20;;;;;;;15.92;97.43;102492.47;20879739;28;20489;-88
2022/12/01 22:22:51;;;;;;;8.88;6.47;;;;;;;15.69;97.18;102466.84;20851920;28;20069;-88
2022/12/01 22:33:04;;;;;;;7.55;6.13;;;;;;;15.85;97.31;102474.06;20853641;28;20382;-87
2022/12/01 22:43:14;;;;;;;8.27;6.38;;;;;;;15.92;97.07;102475.50;20854802;28;20055;-87
2022/12/01 22:53:18;;;;;;;9.23;6.93;;;;;;;15.82;97.15;102459.00;20873133;28;20049;-87
2022/12/01 23:03:20;;;;;;;8.40;6.30;;;;;;;15.90;97.12;102489.00;20856908;28;20128;-88
2022/12/01 23:13:23;;;;;;;7.90;6.00;;;;;;;15.90;96.99;102467.53;20848823;28;20141;-87
2022/12/01 23:23:30;;;;;;;8.13;6.22;;;;;;;15.90;96.81;102450.53;20877998;28;20049;-87
2022/12/01 23:33:33;;;;;;;8.32;6.28;;;;;;;15.90;96.81;102445.16;20863901;28;20045;-87
2022/12/01 23:43:38;;;;;;;8.15;6.25;;;;;;;15.89;96.50;102443.41;20842288;28;20048;-87
2022/12/01 23:53:40;;;;;;;;;;;;;;;15.89;96.26;102441.63;20868075;28;20053;-88
